PASV/SVW METAR and TAF weather

Enter ICAO airport designator
Station Type Date Time Source
PASV METAR 2021/08/04 18:55 UTC NOAA

PASV 041855Z 24004KT 10SM CLR 19/13 A2978 RMK AO2A SLP065 BWC LOW


Station Type Date Time Source
PASV Decoded METAR 2021/08/04 18:55 UTC NOAA

Sparrevohn Airways Facilities Sector, AK, United States (PASV) 61-06N 155-34W
Aug 04, 2021 - 02:55 PM EDT / 2021.08.04 1855 UTC
Wind: from the WSW (240 degrees) at 5 MPH (4 KT):0
Visibility: 10 mile(s):0
Sky conditions: clear
Temperature: 66 F (19 C)
Dew Point: 55 F (13 C)
Relative Humidity: 68%
Pressure (altimeter): 29.78 in. Hg (1008 hPa)
ob: PASV 041855Z 24004KT 10SM CLR 19/13 A2978 RMK AO2A SLP065 BWC LOW
cycle: 19

Station Type Date Time Source
PASV TAF 2012/01/12 14:57 UTC NOAA

TAF
AMD PASV 1214/1320 33010G15KT 4800 -SN BLSN SCT003 SCT110 QNH2984INS
BECMG 1221/1222 VRB06KT 9999 NSW FEW010 SCT110 QNH3000INS LIMITED METWATCH TM25/1300Z TM37/1315Z
AMD 121453

Example: see airport list